createdAt,value
2022-08-18T00:02:08.274Z,25.77
2022-08-18T00:04:49.141Z,32.28
2022-08-18T00:07:23.220Z,27.58
2022-08-18T00:09:57.235Z,26.35
2022-08-18T00:12:29.909Z,28.95
2022-08-18T00:15:04.242Z,33.58
2022-08-18T00:17:32.077Z,26.88
2022-08-18T00:20:05.199Z,28.40
2022-08-18T00:22:32.060Z,30.75
2022-08-18T00:25:05.235Z,26.13
2022-08-18T00:27:32.151Z,22.83
2022-08-18T00:30:08.222Z,21.90
2022-08-18T00:32:45.288Z,20.65
2022-08-18T00:35:18.207Z,27.90
2022-08-18T00:37:52.367Z,25.02
2022-08-18T00:40:32.376Z,29.75
2022-08-18T00:43:05.330Z,26.15
2022-08-18T00:45:43.222Z,28.05
2022-08-18T00:48:12.665Z,29.40
2022-08-18T00:50:59.706Z,30.60
2022-08-18T00:53:47.252Z,29.30
2022-08-18T00:56:32.236Z,27.10
2022-08-18T00:59:11.221Z,29.58
2022-08-18T01:01:46.239Z,25.80
2022-08-18T01:04:26.240Z,24.35
2022-08-18T01:07:05.261Z,19.23
2022-08-18T01:09:39.237Z,17.73
2022-08-18T01:12:45.858Z,18.02
2022-08-18T01:15:30.342Z,25.35
2022-08-18T01:18:25.231Z,23.23
2022-08-18T01:21:45.253Z,23.92
2022-08-18T01:24:21.838Z,22.02
2022-08-18T01:26:58.262Z,23.63
2022-08-18T01:29:31.277Z,24.20
2022-08-18T01:31:57.938Z,26.60
2022-08-18T01:34:34.257Z,23.73
2022-08-18T01:37:11.250Z,18.73
2022-08-18T01:41:27.333Z,21.83
2022-08-18T01:42:32.262Z,25.67
2022-08-18T01:44:58.980Z,23.55
2022-08-18T01:47:47.909Z,25.33
2022-08-18T01:50:17.236Z,20.77
2022-08-18T01:52:50.280Z,18.50
2022-08-18T01:55:18.098Z,21.25
2022-08-18T01:57:52.538Z,19.13
2022-08-18T02:00:19.568Z,18.65
2022-08-18T02:02:57.958Z,18.63
2022-08-18T02:05:36.407Z,25.20
2022-08-18T02:08:11.273Z,18.65
2022-08-18T02:10:39.046Z,15.90
2022-08-18T02:13:06.378Z,23.42
2022-08-18T02:15:41.922Z,15.70
2022-08-18T02:18:47.056Z,19.77
2022-08-18T02:21:19.424Z,16.27
2022-08-18T02:23:54.285Z,18.60
2022-08-18T02:26:28.286Z,19.08
2022-08-18T02:29:02.951Z,19.90
2022-08-18T02:31:29.654Z,26.05
2022-08-18T02:34:03.286Z,20.17
2022-08-18T02:36:36.287Z,13.38
2022-08-18T02:39:03.113Z,12.38
2022-08-18T02:41:43.286Z,12.98
2022-08-18T02:44:23.324Z,13.23
2022-08-18T02:47:03.346Z,15.23
2022-08-18T02:49:39.169Z,19.58
2022-08-18T02:52:12.304Z,18.42
2022-08-18T02:54:45.667Z,23.15
2022-08-18T02:57:19.397Z,18.95
2022-08-18T02:59:52.373Z,27.00
2022-08-18T03:02:32.315Z,22.65
2022-08-18T03:05:05.539Z,22.02
2022-08-18T03:07:32.214Z,19.67
2022-08-18T03:10:33.147Z,15.68
2022-08-18T03:12:59.090Z,15.40
2022-08-18T03:15:39.303Z,21.38
2022-08-18T03:18:12.505Z,20.17
2022-08-18T03:20:46.315Z,15.15
2022-08-18T03:23:27.326Z,12.80
2022-08-18T03:26:03.329Z,13.35
2022-08-18T03:28:36.313Z,13.60
2022-08-18T03:31:03.000Z,13.85
2022-08-18T03:33:36.344Z,13.75
2022-08-18T03:36:15.326Z,19.40
2022-08-18T03:38:43.243Z,25.73
2022-08-18T03:41:57.543Z,19.27
2022-08-18T03:44:11.699Z,18.52
2022-08-18T03:46:47.343Z,20.95
2022-08-18T03:49:20.400Z,17.38
2022-08-18T03:51:55.341Z,20.65
2022-08-18T03:54:29.312Z,16.08
2022-08-18T03:56:56.166Z,13.95
2022-08-18T03:59:31.336Z,13.35
2022-08-18T04:01:58.284Z,13.30
2022-08-18T04:04:34.342Z,16.10
2022-08-18T04:07:06.758Z,12.65
2022-08-18T04:09:41.368Z,12.85
2022-08-18T04:12:17.295Z,13.20
2022-08-18T04:14:54.348Z,17.23
2022-08-18T04:17:31.362Z,19.83
2022-08-18T04:19:58.145Z,21.77
2022-08-18T04:22:32.356Z,19.58
2022-08-18T04:25:01.072Z,22.02
2022-08-18T04:27:35.340Z,22.25
2022-08-18T04:30:02.407Z,24.55
2022-08-18T04:32:37.386Z,22.30
2022-08-18T04:35:14.139Z,18.73
2022-08-18T04:37:41.857Z,13.95
2022-08-18T04:40:18.336Z,19.48
2022-08-18T04:42:54.371Z,22.45
2022-08-18T04:45:21.072Z,18.67
2022-08-18T04:47:54.415Z,21.48
2022-08-18T04:50:21.401Z,21.48
2022-08-18T04:53:13.368Z,19.92
2022-08-18T04:55:52.385Z,28.25
2022-08-18T04:58:20.635Z,28.35
2022-08-18T05:01:03.821Z,27.15
2022-08-18T05:03:37.979Z,26.48
2022-08-18T05:06:17.756Z,28.30
2022-08-18T05:08:51.418Z,26.63
2022-08-18T05:11:18.118Z,23.67
2022-08-18T05:13:44.824Z,19.20
2022-08-18T05:16:24.645Z,20.05
2022-08-18T05:19:03.050Z,18.80
2022-08-18T05:21:33.765Z,15.10
2022-08-18T05:24:12.385Z,17.58
2022-08-18T05:26:48.421Z,23.55
2022-08-18T05:29:22.394Z,25.40
2022-08-18T05:31:52.490Z,32.15
2022-08-18T05:34:28.429Z,35.28
2022-08-18T05:37:11.430Z,35.17
2022-08-18T05:39:53.695Z,20.73
2022-08-18T05:42:29.396Z,24.10
2022-08-18T05:44:56.529Z,27.17
2022-08-18T05:47:39.490Z,23.77
2022-08-18T05:50:10.501Z,28.92
2022-08-18T05:52:45.403Z,22.23
2022-08-18T05:55:45.922Z,24.58
2022-08-18T06:01:08.890Z,31.45
2022-08-18T06:03:55.427Z,23.77
2022-08-18T06:06:32.436Z,22.20
2022-08-18T06:09:03.657Z,19.25
2022-08-18T06:11:30.454Z,17.08
2022-08-18T06:14:03.435Z,18.75
2022-08-18T06:16:45.428Z,18.50
2022-08-18T06:19:39.046Z,19.52
2022-08-18T06:22:52.523Z,30.08
2022-08-18T06:26:00.439Z,19.55
2022-08-18T06:28:55.418Z,18.08
2022-08-18T06:31:48.343Z,22.20
2022-08-18T06:34:32.585Z,15.98
2022-08-18T06:37:17.426Z,16.75
2022-08-18T06:39:51.755Z,20.27
2022-08-18T06:42:32.440Z,19.65
2022-08-18T06:45:03.443Z,16.98
2022-08-18T06:48:17.446Z,20.20
2022-08-18T06:50:57.553Z,15.88
2022-08-18T06:54:11.448Z,19.88
2022-08-18T06:56:41.216Z,20.65
2022-08-18T06:59:31.507Z,22.30
2022-08-18T07:02:10.593Z,21.65
2022-08-18T07:05:04.477Z,27.00
2022-08-18T07:07:42.105Z,23.00
2022-08-18T07:10:21.449Z,26.10
2022-08-18T07:12:48.162Z,15.98
2022-08-18T07:15:31.467Z,25.05
2022-08-18T07:18:06.392Z,32.83
2022-08-18T07:20:52.467Z,33.53
2022-08-18T07:23:29.452Z,27.42
2022-08-18T07:26:01.006Z,23.45
2022-08-18T07:28:50.454Z,27.73
2022-08-18T07:31:20.200Z,33.75
2022-08-18T07:34:03.484Z,33.60
2022-08-18T07:36:35.480Z,32.58
2022-08-18T07:39:16.848Z,41.75
2022-08-18T07:41:52.364Z,45.45
2022-08-18T07:44:35.529Z,30.33
2022-08-18T07:47:18.505Z,45.45
2022-08-18T07:50:15.620Z,41.45
2022-08-18T07:52:57.482Z,53.38
2022-08-18T07:55:37.470Z,52.47
2022-08-18T07:58:10.005Z,44.75
2022-08-18T08:00:59.124Z,46.17
2022-08-18T08:03:38.284Z,51.60
2022-08-18T08:06:32.514Z,42.65
2022-08-18T08:09:18.883Z,45.33
2022-08-18T08:12:08.490Z,48.38
2022-08-18T08:14:42.501Z,39.83
2022-08-18T08:17:30.509Z,44.58
2022-08-18T08:20:15.495Z,49.15
2022-08-18T08:23:00.107Z,46.20
2022-08-18T08:25:52.870Z,40.97
2022-08-18T08:28:38.475Z,47.88
2022-08-18T08:31:38.724Z,46.08
2022-08-18T08:34:27.479Z,43.70
2022-08-18T08:37:08.523Z,46.80
2022-08-18T08:40:01.575Z,47.88
2022-08-18T08:42:40.214Z,39.20
2022-08-18T08:45:20.505Z,48.10
2022-08-18T08:47:50.302Z,50.28
2022-08-18T08:50:29.496Z,50.92
2022-08-18T08:53:26.569Z,54.65
2022-08-18T08:56:02.671Z,50.72
2022-08-18T08:58:57.518Z,43.67
2022-08-18T09:01:36.546Z,44.70
2022-08-18T09:04:34.760Z,46.83
2022-08-18T09:07:38.301Z,48.05
2022-08-18T09:10:23.526Z,43.42
2022-08-18T09:13:16.513Z,46.35
2022-08-18T09:16:34.541Z,31.15
2022-08-18T09:19:29.130Z,41.92
2022-08-18T09:22:30.532Z,40.95
2022-08-18T09:25:05.356Z,49.72
2022-08-18T09:28:09.395Z,52.30
2022-08-18T09:31:14.526Z,55.42
2022-08-18T09:34:07.189Z,46.72
2022-08-18T09:37:08.536Z,48.22
2022-08-18T09:40:10.852Z,47.00
2022-08-18T09:42:48.608Z,44.88
2022-08-18T09:45:39.541Z,42.75
2022-08-18T09:48:13.901Z,41.58
2022-08-18T09:50:58.548Z,42.38
2022-08-18T09:53:54.134Z,47.63
2022-08-18T09:56:58.543Z,42.25
2022-08-18T09:59:35.035Z,34.25
2022-08-18T10:02:28.083Z,38.88
2022-08-18T10:05:26.539Z,34.60
2022-08-18T10:08:06.749Z,31.85
2022-08-18T10:11:02.356Z,34.72
2022-08-18T10:13:59.328Z,31.48
2022-08-18T10:20:25.803Z,34.58
2022-08-18T10:23:02.971Z,22.67
2022-08-18T10:25:54.566Z,18.60
2022-08-18T10:28:58.568Z,19.88
2022-08-18T10:31:27.381Z,25.92
2022-08-18T10:34:17.163Z,17.55
2022-08-18T10:37:06.464Z,17.88
2022-08-18T10:39:45.649Z,24.13
2022-08-18T10:42:54.907Z,25.23
2022-08-18T10:45:41.567Z,30.67
2022-08-18T10:48:29.295Z,17.92
2022-08-18T10:54:35.583Z,24.95
2022-08-18T10:57:47.599Z,25.35
2022-08-18T11:00:19.820Z,25.40
2022-08-18T11:03:50.169Z,25.45
2022-08-18T11:06:18.072Z,22.43
2022-08-18T11:08:58.585Z,25.40
2022-08-18T11:11:42.098Z,21.58
2022-08-18T11:14:41.190Z,23.73
2022-08-18T11:17:45.593Z,21.83
2022-08-18T11:20:23.614Z,25.67
2022-08-18T11:23:03.593Z,19.67
2022-08-18T11:25:32.123Z,23.17
2022-08-18T11:28:07.609Z,23.13
2022-08-18T11:30:37.426Z,20.58
2022-08-18T11:33:07.145Z,19.67
2022-08-18T11:35:55.611Z,18.58
2022-08-18T11:41:24.261Z,23.40
2022-08-18T11:44:04.049Z,18.95
2022-08-18T11:46:42.980Z,17.17
2022-08-18T11:49:51.620Z,18.67
2022-08-18T11:52:36.616Z,16.63
2022-08-18T11:55:16.938Z,15.85
2022-08-18T11:58:00.637Z,21.42
2022-08-18T12:03:50.608Z,18.23
2022-08-18T12:06:32.715Z,17.48
2022-08-18T12:10:07.671Z,16.67
2022-08-18T12:12:28.632Z,14.60
2022-08-18T12:17:54.071Z,16.23
2022-08-18T12:20:22.573Z,13.30
2022-08-18T12:22:56.797Z,13.50
2022-08-18T12:25:30.630Z,17.63
2022-08-18T12:28:04.674Z,20.88
2022-08-18T12:30:37.911Z,13.95
2022-08-18T12:33:15.856Z,14.90
2022-08-18T12:35:44.702Z,15.43
2022-08-18T12:38:19.658Z,14.43
2022-08-18T12:40:52.634Z,13.45
2022-08-18T12:43:25.663Z,17.55
2022-08-18T12:46:06.658Z,14.65
2022-08-18T12:48:45.634Z,13.35
2022-08-18T12:51:13.490Z,14.25
2022-08-18T12:53:58.216Z,16.35
2022-08-18T12:56:30.413Z,13.98
2022-08-18T12:59:08.658Z,17.20
2022-08-18T13:01:36.990Z,15.27
2022-08-18T13:04:11.061Z,14.88
2022-08-18T13:07:00.140Z,17.40
2022-08-18T13:09:35.800Z,14.63
2022-08-18T13:12:25.687Z,16.90
2022-08-18T13:15:02.905Z,15.52
2022-08-18T13:17:33.774Z,15.75
2022-08-18T13:20:19.656Z,16.33
2022-08-18T13:22:48.009Z,15.43
2022-08-18T13:25:32.199Z,15.30
2022-08-18T13:28:00.433Z,17.33
2022-08-18T13:30:35.781Z,17.85
2022-08-18T13:33:34.875Z,19.25
2022-08-18T13:36:03.722Z,19.92
2022-08-18T13:38:30.457Z,16.55
2022-08-18T13:41:06.694Z,17.35
2022-08-18T13:43:38.041Z,17.58
2022-08-18T13:46:13.691Z,18.55
2022-08-18T13:48:43.087Z,18.42
2022-08-18T13:51:24.694Z,16.42
2022-08-18T13:54:17.391Z,17.50
2022-08-18T13:56:51.260Z,15.50
2022-08-18T13:59:21.550Z,14.73
2022-08-18T14:01:55.765Z,19.67
2022-08-18T14:04:29.696Z,17.27
2022-08-18T14:06:59.868Z,14.80
2022-08-18T14:09:37.798Z,16.85
2022-08-18T14:12:22.689Z,19.08
2022-08-18T14:14:58.733Z,16.23
2022-08-18T14:17:26.703Z,17.00
2022-08-18T14:20:22.074Z,15.95
2022-08-18T14:23:24.041Z,15.07
2022-08-18T14:26:19.680Z,13.82
2022-08-18T14:28:53.711Z,13.52
2022-08-18T14:31:20.675Z,16.38
2022-08-18T14:33:53.551Z,17.23
2022-08-18T14:36:30.162Z,16.52
2022-08-18T14:39:05.710Z,14.60
2022-08-18T14:41:54.527Z,16.98
2022-08-18T14:44:23.590Z,16.42
2022-08-18T14:46:57.715Z,17.60
2022-08-18T14:49:29.163Z,17.05
2022-08-18T14:54:46.334Z,12.93
2022-08-18T14:57:24.710Z,13.48
2022-08-18T14:59:51.534Z,14.05
2022-08-18T15:02:25.695Z,15.90
2022-08-18T15:04:58.890Z,14.73
2022-08-18T15:07:33.787Z,14.55
2022-08-18T15:10:15.127Z,13.75
2022-08-18T15:12:50.773Z,12.82
2022-08-18T15:15:18.535Z,13.38
2022-08-18T15:17:53.227Z,16.02
2022-08-18T15:20:29.852Z,18.48
2022-08-18T15:23:24.845Z,13.40
2022-08-18T15:26:02.930Z,14.20
2022-08-18T15:28:32.028Z,12.65
2022-08-18T15:33:58.766Z,12.45
2022-08-18T15:36:34.713Z,13.80
2022-08-18T15:39:04.700Z,16.70
2022-08-18T15:41:48.840Z,15.02
2022-08-18T15:44:20.364Z,15.65
2022-08-18T15:46:58.733Z,14.15
2022-08-18T15:49:25.789Z,14.77
2022-08-18T15:52:00.788Z,15.05
2022-08-18T15:54:33.856Z,15.35
2022-08-18T15:57:06.740Z,15.30
2022-08-18T15:59:39.732Z,14.55
2022-08-18T16:02:18.181Z,11.65
2022-08-18T16:04:46.094Z,13.20
2022-08-18T16:07:32.416Z,14.27
2022-08-18T16:10:15.827Z,15.18
2022-08-18T16:12:45.920Z,13.35
2022-08-18T16:15:21.888Z,13.17
2022-08-18T16:17:50.901Z,14.02
2022-08-18T16:20:27.764Z,14.63
2022-08-18T16:22:54.658Z,13.73
2022-08-18T16:25:21.594Z,14.85
2022-08-18T16:27:54.776Z,13.40
2022-08-18T16:30:24.385Z,15.50
2022-08-18T16:32:58.762Z,16.35
2022-08-18T16:35:33.956Z,19.27
2022-08-18T16:38:14.804Z,14.05
2022-08-18T16:40:41.834Z,13.43
2022-08-18T16:43:15.776Z,17.30
2022-08-18T16:45:42.848Z,15.38
2022-08-18T16:48:14.239Z,15.20
2022-08-18T16:50:51.787Z,13.90
2022-08-18T16:53:24.793Z,16.75
2022-08-18T16:55:57.793Z,17.20
2022-08-18T16:58:49.798Z,14.30
2022-08-18T17:01:48.713Z,17.83
2022-08-18T17:04:26.801Z,15.35
2022-08-18T17:07:04.330Z,16.48
2022-08-18T17:09:39.814Z,14.68
2022-08-18T17:12:06.759Z,17.35
2022-08-18T17:14:40.794Z,13.93
2022-08-18T17:17:07.673Z,14.77
2022-08-18T17:19:42.808Z,12.68
2022-08-18T17:22:09.591Z,14.02
2022-08-18T17:24:37.605Z,15.80
2022-08-18T17:27:27.011Z,15.00
2022-08-18T17:30:18.803Z,17.02
2022-08-18T17:32:57.402Z,17.45
2022-08-18T17:38:25.809Z,17.20
2022-08-18T17:41:03.344Z,20.27
2022-08-18T17:46:32.913Z,16.52
2022-08-18T17:49:22.426Z,16.85
2022-08-18T17:51:59.862Z,17.13
2022-08-18T17:54:43.906Z,21.05
2022-08-18T17:57:33.057Z,17.30
2022-08-18T18:00:18.994Z,22.08
2022-08-18T18:02:46.803Z,17.38
2022-08-18T18:05:23.945Z,18.67
2022-08-18T18:07:56.831Z,16.98
2022-08-18T18:10:47.028Z,18.48
2022-08-18T18:13:35.841Z,19.52
2022-08-18T18:16:28.770Z,18.88
2022-08-18T18:19:04.890Z,19.20
2022-08-18T18:21:53.431Z,18.65
2022-08-18T18:24:38.945Z,21.00
2022-08-18T18:27:26.959Z,17.60
2022-08-18T18:30:03.848Z,16.90
2022-08-18T18:32:59.124Z,20.45
2022-08-18T18:35:37.845Z,19.00
2022-08-18T18:38:37.831Z,18.58
2022-08-18T18:41:12.405Z,16.63
2022-08-18T18:43:52.854Z,18.58
2022-08-18T18:46:38.827Z,19.50
2022-08-18T18:49:24.944Z,18.50
2022-08-18T18:52:00.848Z,19.48
2022-08-18T18:55:02.388Z,19.10
2022-08-18T18:57:56.852Z,17.92
2022-08-18T19:00:53.561Z,18.90
2022-08-18T19:03:36.859Z,20.00
2022-08-18T19:06:15.943Z,16.70
2022-08-18T19:09:00.876Z,16.67
2022-08-18T19:11:59.878Z,17.33
2022-08-18T19:14:42.873Z,19.00
2022-08-18T19:17:48.965Z,19.17
2022-08-18T19:20:24.612Z,17.90
2022-08-18T19:23:05.873Z,17.63
2022-08-18T19:25:48.309Z,19.63
2022-08-18T19:29:12.754Z,21.65
2022-08-18T19:31:29.108Z,20.60
2022-08-18T19:34:08.443Z,19.52
2022-08-18T19:37:18.285Z,19.92
2022-08-18T19:40:24.905Z,19.50
2022-08-18T19:43:06.261Z,18.02
2022-08-18T19:46:16.863Z,19.58
2022-08-18T19:48:58.705Z,21.08
2022-08-18T19:51:48.867Z,21.13
2022-08-18T19:54:36.599Z,20.88
2022-08-18T19:57:55.873Z,20.27
2022-08-18T20:00:50.953Z,18.05
2022-08-18T20:03:18.487Z,19.00
2022-08-18T20:06:33.252Z,20.05
2022-08-18T20:09:15.944Z,18.67
2022-08-18T20:12:12.893Z,24.02
2022-08-18T20:14:48.903Z,24.02
2022-08-18T20:17:26.910Z,25.45
2022-08-18T20:20:01.025Z,26.02
2022-08-18T20:22:37.882Z,22.40
2022-08-18T20:25:23.939Z,21.52
2022-08-18T20:28:05.907Z,20.60
2022-08-18T20:30:37.342Z,21.10
2022-08-18T20:33:25.708Z,21.38
2022-08-18T20:35:58.567Z,20.77
2022-08-18T20:38:56.917Z,20.83
2022-08-18T20:41:23.575Z,22.27
2022-08-18T20:44:28.617Z,23.27
2022-08-18T20:47:11.138Z,21.23
2022-08-18T20:50:12.915Z,24.73
2022-08-18T20:53:14.863Z,24.85
2022-08-18T20:56:31.696Z,26.63
2022-08-18T20:59:25.740Z,22.73
2022-08-18T21:02:02.971Z,21.35
2022-08-18T21:04:42.849Z,24.50
2022-08-18T21:07:35.900Z,25.27
2022-08-18T21:10:32.045Z,22.63
2022-08-18T21:13:15.917Z,19.88
2022-08-18T21:15:48.902Z,18.17
2022-08-18T21:18:34.924Z,19.58
2022-08-18T21:21:11.940Z,23.52
2022-08-18T21:23:47.012Z,24.70
2022-08-18T21:26:21.937Z,22.50
2022-08-18T21:29:07.933Z,24.23
2022-08-18T21:31:42.206Z,23.92
2022-08-18T21:34:45.042Z,18.58
2022-08-18T21:37:14.543Z,23.88
2022-08-18T21:40:04.029Z,24.48
2022-08-18T21:42:51.541Z,25.50
2022-08-18T21:45:28.939Z,21.83
2022-08-18T21:48:08.930Z,25.20
2022-08-18T21:50:41.946Z,26.40
2022-08-18T21:53:24.959Z,32.53
2022-08-18T21:56:02.931Z,21.25
2022-08-18T21:58:56.949Z,20.83
2022-08-18T22:01:35.936Z,24.70
2022-08-18T22:04:25.095Z,22.27
2022-08-18T22:07:03.948Z,24.60
2022-08-18T22:10:19.789Z,21.65
2022-08-18T22:13:22.955Z,24.23
2022-08-18T22:15:56.937Z,26.90
2022-08-18T22:18:43.960Z,28.05
2022-08-18T22:21:32.141Z,30.58
2022-08-18T22:24:24.968Z,28.25
2022-08-18T22:29:58.959Z,26.52
2022-08-18T22:32:32.973Z,28.23
2022-08-18T22:34:59.694Z,31.63
2022-08-18T22:37:36.959Z,32.13
2022-08-18T22:40:17.013Z,32.53
2022-08-18T22:42:49.060Z,18.85
2022-08-18T22:45:15.923Z,25.75
2022-08-18T22:47:48.980Z,22.65
2022-08-18T22:50:15.711Z,29.05
2022-08-18T22:52:47.229Z,23.10
2022-08-18T22:55:24.314Z,29.88
2022-08-18T22:57:55.653Z,23.80
2022-08-18T23:00:29.978Z,27.95
2022-08-18T23:03:06.463Z,26.95
2022-08-18T23:05:39.985Z,20.83
2022-08-18T23:08:07.605Z,25.00
2022-08-18T23:10:43.986Z,28.83
2022-08-18T23:13:17.985Z,19.05
2022-08-18T23:15:54.996Z,32.65
2022-08-18T23:18:49.980Z,32.15
2022-08-18T23:21:34.593Z,29.50
2022-08-18T23:24:12.987Z,31.25
2022-08-18T23:26:40.417Z,28.35
2022-08-18T23:29:11.384Z,32.50
2022-08-18T23:31:46.979Z,33.08
2022-08-18T23:34:17.437Z,33.22
2022-08-18T23:36:53.049Z,23.40
2022-08-18T23:39:28.121Z,26.77
2022-08-18T23:42:02.002Z,27.58
2022-08-18T23:44:29.060Z,25.65
2022-08-18T23:47:03.996Z,29.65
2022-08-18T23:49:37.028Z,29.73
2022-08-18T23:52:04.091Z,29.70
2022-08-18T23:54:41.027Z,33.97
2022-08-18T23:57:14.021Z,34.42
2022-08-18T23:59:47.004Z,34.15
